createdAt,value
2022-09-14T00:00:38.553Z,979.97
2022-09-14T00:01:38.586Z,980.03
2022-09-14T00:02:38.678Z,980.01
2022-09-14T00:03:38.509Z,979.97
2022-09-14T00:04:38.535Z,979.95
2022-09-14T00:05:38.511Z,979.94
2022-09-14T00:06:38.466Z,980.01
2022-09-14T00:07:38.448Z,980.06
2022-09-14T00:08:38.440Z,980.04
2022-09-14T00:09:38.433Z,980.04
2022-09-14T00:10:38.515Z,980.08
2022-09-14T00:11:38.403Z,979.98
2022-09-14T00:12:38.400Z,980.00
2022-09-14T00:13:38.390Z,980.00
2022-09-14T00:14:38.393Z,979.96
2022-09-14T00:15:38.371Z,979.98
2022-09-14T00:16:38.444Z,980.03
2022-09-14T00:17:38.362Z,980.07
2022-09-14T00:18:38.331Z,980.11
2022-09-14T00:19:38.353Z,980.15
2022-09-14T00:20:38.338Z,980.21
2022-09-14T00:21:38.300Z,980.14
2022-09-14T00:22:38.348Z,980.15
2022-09-14T00:23:38.311Z,980.12
2022-09-14T00:24:38.315Z,980.20
2022-09-14T00:25:38.254Z,980.20
2022-09-14T00:26:38.238Z,980.18
2022-09-14T00:27:38.230Z,980.16
2022-09-14T00:28:38.386Z,980.24
2022-09-14T00:29:38.241Z,980.21
2022-09-14T00:30:38.207Z,980.33
2022-09-14T00:31:38.333Z,980.38
2022-09-14T00:32:38.177Z,980.36
2022-09-14T00:33:38.185Z,980.38
2022-09-14T00:34:38.231Z,980.45
2022-09-14T00:35:38.164Z,980.50
2022-09-14T00:36:38.144Z,980.51
2022-09-14T00:37:38.122Z,980.55
2022-09-14T00:38:38.119Z,980.49
2022-09-14T00:39:38.119Z,980.53
2022-09-14T00:40:38.127Z,980.55
2022-09-14T00:41:38.080Z,980.55
2022-09-14T00:42:38.071Z,980.51
2022-09-14T00:43:38.055Z,980.50
2022-09-14T00:44:38.067Z,980.52
2022-09-14T00:45:38.076Z,980.49
2022-09-14T00:46:38.023Z,980.44
2022-09-14T00:47:38.018Z,980.49
2022-09-14T00:48:38.041Z,980.50
2022-09-14T00:49:38.033Z,980.48
2022-09-14T00:50:37.989Z,980.54
2022-09-14T00:51:37.967Z,980.57
2022-09-14T00:52:37.970Z,980.60
2022-09-14T00:53:37.950Z,980.51
2022-09-14T00:54:37.970Z,980.47
2022-09-14T00:55:37.997Z,980.45
2022-09-14T00:56:37.934Z,980.39
2022-09-14T00:57:37.931Z,980.35
2022-09-14T00:58:37.897Z,980.37
2022-09-14T00:59:37.910Z,980.43
2022-09-14T01:00:37.920Z,980.42
2022-09-14T01:01:37.959Z,980.40
2022-09-14T01:02:37.904Z,980.37
2022-09-14T01:03:37.849Z,980.35
2022-09-14T01:04:37.874Z,980.32
2022-09-14T01:05:37.851Z,980.33
2022-09-14T01:06:37.826Z,980.35
2022-09-14T01:07:37.812Z,980.33
2022-09-14T01:08:37.829Z,980.32
2022-09-14T01:09:37.809Z,980.29
2022-09-14T01:10:37.769Z,980.24
2022-09-14T01:11:37.771Z,980.33
2022-09-14T01:12:37.744Z,980.34
2022-09-14T01:13:37.746Z,980.38
2022-09-14T01:14:37.808Z,980.29
2022-09-14T01:15:37.725Z,980.25
2022-09-14T01:16:37.777Z,980.29
2022-09-14T01:17:37.716Z,980.21
2022-09-14T01:18:37.683Z,980.23
2022-09-14T01:19:37.693Z,980.22
2022-09-14T01:20:37.701Z,980.24
2022-09-14T01:21:37.677Z,980.24
2022-09-14T01:22:37.648Z,980.24
2022-09-14T01:23:37.651Z,980.30
2022-09-14T01:24:37.635Z,980.25
2022-09-14T01:25:37.645Z,980.29
2022-09-14T01:26:37.599Z,980.28
2022-09-14T01:27:37.753Z,980.24
2022-09-14T01:28:37.579Z,980.26
2022-09-14T01:29:37.589Z,980.17
2022-09-14T01:30:37.565Z,980.16
2022-09-14T01:31:37.610Z,980.22
2022-09-14T01:32:37.537Z,980.26
2022-09-14T01:33:37.569Z,980.21
2022-09-14T01:34:37.528Z,980.26
2022-09-14T01:35:37.529Z,980.22
2022-09-14T01:36:37.489Z,980.20
2022-09-14T01:37:37.644Z,980.22
2022-09-14T01:38:37.467Z,980.25
2022-09-14T01:39:37.476Z,980.17
2022-09-14T01:40:37.472Z,980.18
2022-09-14T01:41:37.492Z,980.08
2022-09-14T01:42:37.432Z,980.10
2022-09-14T01:43:37.422Z,980.11
2022-09-14T01:44:37.420Z,980.10
2022-09-14T01:45:37.477Z,980.14
2022-09-14T01:46:37.421Z,980.14
2022-09-14T01:47:37.415Z,980.10
2022-09-14T01:48:37.378Z,980.09
2022-09-14T01:49:37.377Z,980.09
2022-09-14T01:50:37.347Z,980.09
2022-09-14T01:51:37.338Z,980.16
2022-09-14T01:52:37.341Z,980.09
2022-09-14T01:53:37.405Z,980.08
2022-09-14T01:54:37.313Z,980.11
2022-09-14T01:55:37.308Z,980.08
2022-09-14T01:56:37.276Z,980.04
2022-09-14T01:57:37.272Z,980.09
2022-09-14T01:58:37.253Z,980.05
2022-09-14T01:59:37.286Z,979.98
2022-09-14T02:00:37.298Z,980.03
2022-09-14T02:01:37.337Z,980.04
2022-09-14T02:02:37.274Z,980.06
2022-09-14T02:03:37.201Z,980.00
2022-09-14T02:04:37.190Z,979.97
2022-09-14T02:05:37.349Z,979.99
2022-09-14T02:06:37.174Z,979.99
2022-09-14T02:07:37.155Z,980.01
2022-09-14T02:08:37.149Z,979.94
2022-09-14T02:09:37.200Z,979.95
2022-09-14T02:10:37.149Z,979.97
2022-09-14T02:11:37.160Z,979.94
2022-09-14T02:12:37.115Z,979.98
2022-09-14T02:13:37.115Z,979.95
2022-09-14T02:14:37.113Z,979.92
2022-09-14T02:15:37.108Z,979.92
2022-09-14T02:16:37.150Z,979.97
2022-09-14T02:17:37.112Z,979.91
2022-09-14T02:18:37.041Z,979.92
2022-09-14T02:19:37.076Z,979.94
2022-09-14T02:20:37.077Z,979.87
2022-09-14T02:21:37.005Z,979.90
2022-09-14T02:22:37.039Z,979.92
2022-09-14T02:23:37.010Z,979.95
2022-09-14T02:24:37.083Z,979.96
2022-09-14T02:25:37.074Z,979.96
2022-09-14T02:26:37.038Z,979.92
2022-09-14T02:27:36.951Z,979.89
2022-09-14T02:28:36.943Z,979.89
2022-09-14T02:29:36.939Z,979.90
2022-09-14T02:30:36.923Z,979.90
2022-09-14T02:31:37.014Z,979.90
2022-09-14T02:32:36.928Z,979.90
2022-09-14T02:33:36.910Z,979.90
2022-09-14T02:34:36.921Z,979.90
2022-09-14T02:35:36.868Z,979.90
2022-09-14T02:36:36.871Z,979.96
2022-09-14T02:37:36.845Z,979.91
2022-09-14T02:38:36.834Z,979.90
2022-09-14T02:39:36.898Z,979.90
2022-09-14T02:40:36.809Z,979.82
2022-09-14T02:41:36.936Z,979.74
2022-09-14T02:42:36.825Z,979.83
2022-09-14T02:43:36.774Z,979.80
2022-09-14T02:44:36.779Z,979.83
2022-09-14T02:45:36.772Z,979.85
2022-09-14T02:46:36.772Z,979.80
2022-09-14T02:47:36.733Z,979.85
2022-09-14T02:48:36.798Z,979.87
2022-09-14T02:49:36.708Z,979.96
2022-09-14T02:50:36.714Z,979.91
2022-09-14T02:51:36.698Z,979.93
2022-09-14T02:52:36.681Z,979.95
2022-09-14T02:53:36.700Z,979.91
2022-09-14T02:54:36.897Z,979.92
2022-09-14T02:55:36.665Z,979.88
2022-09-14T02:56:36.640Z,979.87
2022-09-14T02:57:36.777Z,979.94
2022-09-14T02:58:36.637Z,979.97
2022-09-14T02:59:36.610Z,980.03
2022-09-14T03:00:36.807Z,980.11
2022-09-14T03:01:36.637Z,980.07
2022-09-14T03:02:36.571Z,980.05
2022-09-14T03:03:36.563Z,980.08
2022-09-14T03:04:36.562Z,980.03
2022-09-14T03:05:36.555Z,980.06
2022-09-14T03:06:36.600Z,979.96
2022-09-14T03:07:36.519Z,980.07
2022-09-14T03:08:36.515Z,980.06
2022-09-14T03:09:36.497Z,980.09
2022-09-14T03:10:36.521Z,980.04
2022-09-14T03:11:36.471Z,980.01
2022-09-14T03:12:36.533Z,980.10
2022-09-14T03:13:36.495Z,980.08
2022-09-14T03:14:36.446Z,980.05
2022-09-14T03:15:36.460Z,980.12
2022-09-14T03:16:36.516Z,980.07
2022-09-14T03:17:36.501Z,980.07
2022-09-14T03:18:36.445Z,980.08
2022-09-14T03:19:36.413Z,980.03
2022-09-14T03:20:36.393Z,980.01
2022-09-14T03:21:36.366Z,979.98
2022-09-14T03:22:36.358Z,979.95
2022-09-14T03:23:36.346Z,979.83
2022-09-14T03:24:36.338Z,979.80
2022-09-14T03:25:36.377Z,979.77
2022-09-14T03:26:36.333Z,979.79
2022-09-14T03:27:36.337Z,979.84
2022-09-14T03:28:36.289Z,979.99
2022-09-14T03:29:36.305Z,980.06
2022-09-14T03:30:36.267Z,979.94
2022-09-14T03:31:36.404Z,979.98
2022-09-14T03:32:36.263Z,979.97
2022-09-14T03:33:36.321Z,979.98
2022-09-14T03:34:36.229Z,980.02
2022-09-14T03:35:36.231Z,979.90
2022-09-14T03:36:36.239Z,979.89
2022-09-14T03:37:36.351Z,979.94
2022-09-14T03:38:36.347Z,979.83
2022-09-14T03:39:36.228Z,979.73
2022-09-14T03:40:36.204Z,979.80
2022-09-14T03:41:36.183Z,979.88
2022-09-14T03:42:36.290Z,979.79
2022-09-14T03:43:36.147Z,979.74
2022-09-14T03:44:36.137Z,979.71
2022-09-14T03:45:36.147Z,979.69
2022-09-14T03:46:36.180Z,979.69
2022-09-14T03:47:36.144Z,979.66
2022-09-14T03:48:36.083Z,979.69
2022-09-14T03:49:36.077Z,979.62
2022-09-14T03:50:36.109Z,979.71
2022-09-14T03:51:36.043Z,979.69
2022-09-14T03:52:36.055Z,979.67
2022-09-14T03:53:36.117Z,979.61
2022-09-14T03:54:36.088Z,979.55
2022-09-14T03:55:36.126Z,979.54
2022-09-14T03:56:36.011Z,979.57
2022-09-14T03:57:35.977Z,979.54
2022-09-14T03:58:35.981Z,979.58
2022-09-14T03:59:37.639Z,979.63
2022-09-14T04:00:36.011Z,979.64
2022-09-14T04:01:36.105Z,979.61
2022-09-14T04:02:35.981Z,979.53
2022-09-14T04:03:35.921Z,979.48
2022-09-14T04:04:35.922Z,979.46
2022-09-14T04:05:35.915Z,979.43
2022-09-14T04:06:35.942Z,979.40
2022-09-14T04:07:35.879Z,979.45
2022-09-14T04:08:35.896Z,979.40
2022-09-14T04:09:35.856Z,979.35
2022-09-14T04:10:35.844Z,979.31
2022-09-14T04:11:35.831Z,979.30
2022-09-14T04:12:35.842Z,979.29
2022-09-14T04:13:35.866Z,979.27
2022-09-14T04:14:35.816Z,979.38
2022-09-14T04:15:35.831Z,979.34
2022-09-14T04:16:35.866Z,979.37
2022-09-14T04:17:35.824Z,979.36
2022-09-14T04:18:35.780Z,979.39
2022-09-14T04:19:35.823Z,979.36
2022-09-14T04:20:35.755Z,979.40
2022-09-14T04:21:35.765Z,979.39
2022-09-14T04:22:35.714Z,979.44
2022-09-14T04:23:46.282Z,979.48
2022-09-14T04:24:36.717Z,979.49
2022-09-14T04:25:35.885Z,979.52
2022-09-14T04:26:35.686Z,979.54
2022-09-14T04:27:35.666Z,979.53
2022-09-14T04:28:35.649Z,979.53
2022-09-14T04:29:35.682Z,979.41
2022-09-14T04:30:35.680Z,979.39
2022-09-14T04:31:35.857Z,979.42
2022-09-14T04:32:35.667Z,979.44
2022-09-14T04:33:35.625Z,979.39
2022-09-14T04:34:35.588Z,979.38
2022-09-14T04:35:35.598Z,979.37
2022-09-14T04:36:35.561Z,979.40
2022-09-14T04:37:35.564Z,979.38
2022-09-14T04:38:35.545Z,979.35
2022-09-14T04:39:35.566Z,979.40
2022-09-14T04:40:35.565Z,979.39
2022-09-14T04:41:35.522Z,979.40
2022-09-14T04:42:35.509Z,979.42
2022-09-14T04:43:35.505Z,979.39
2022-09-14T04:44:35.505Z,979.42
2022-09-14T04:45:35.486Z,979.47
2022-09-14T04:46:35.521Z,979.44
2022-09-14T04:47:35.518Z,979.49
2022-09-14T04:48:35.437Z,979.54
2022-09-14T04:49:35.580Z,979.60
2022-09-14T04:50:35.451Z,979.61
2022-09-14T04:51:35.439Z,979.60
2022-09-14T04:52:35.408Z,979.62
2022-09-14T04:53:35.429Z,979.64
2022-09-14T04:54:35.397Z,979.60
2022-09-14T04:55:35.377Z,979.56
2022-09-14T04:56:35.363Z,979.53
2022-09-14T04:57:35.391Z,979.55
2022-09-14T04:58:35.339Z,979.55
2022-09-14T04:59:35.360Z,979.55
2022-09-14T05:00:35.305Z,979.56
2022-09-14T05:01:35.346Z,979.57
2022-09-14T05:02:35.375Z,979.56
2022-09-14T05:03:35.288Z,979.60
2022-09-14T05:04:35.354Z,979.58
2022-09-14T05:05:35.291Z,979.58
2022-09-14T05:06:35.330Z,979.57
2022-09-14T05:07:35.241Z,979.60
2022-09-14T05:08:35.228Z,979.59
2022-09-14T05:09:35.232Z,979.54
2022-09-14T05:10:35.247Z,979.56
2022-09-14T05:11:35.288Z,979.60
2022-09-14T05:12:35.237Z,979.59
2022-09-14T05:13:35.238Z,979.70
2022-09-14T05:14:35.219Z,979.67
2022-09-14T05:15:35.449Z,979.68
2022-09-14T05:16:35.220Z,979.70
2022-09-14T05:17:35.245Z,979.71
2022-09-14T05:18:35.226Z,979.75
2022-09-14T05:19:35.266Z,979.72
2022-09-14T05:20:35.325Z,979.73
2022-09-14T05:21:35.281Z,979.69
2022-09-14T05:22:35.241Z,979.72
2022-09-14T05:23:35.255Z,979.86
2022-09-14T05:24:35.241Z,979.83
2022-09-14T05:25:35.227Z,979.86
2022-09-14T05:26:35.259Z,979.86
2022-09-14T05:27:35.159Z,979.82
2022-09-14T05:28:35.014Z,979.84
2022-09-14T05:29:35.013Z,979.83
2022-09-14T05:30:35.005Z,979.77
2022-09-14T05:31:35.089Z,979.74
2022-09-14T05:32:35.129Z,979.79
2022-09-14T05:33:34.956Z,979.75
2022-09-14T05:34:34.985Z,979.75
2022-09-14T05:35:35.001Z,979.78
2022-09-14T05:36:35.020Z,979.76
2022-09-14T05:37:34.935Z,979.79
2022-09-14T05:38:34.901Z,979.77
2022-09-14T05:39:34.920Z,979.80
2022-09-14T05:40:34.935Z,979.85
2022-09-14T05:41:34.874Z,979.85
2022-09-14T05:42:34.879Z,979.79
2022-09-14T05:43:34.849Z,979.85
2022-09-14T05:44:34.995Z,979.81
2022-09-14T05:45:34.889Z,979.72
2022-09-14T05:46:34.909Z,979.71
2022-09-14T05:47:38.897Z,979.68
2022-09-14T05:48:34.894Z,979.66
2022-09-14T05:49:34.848Z,979.68
2022-09-14T05:50:34.778Z,979.61
2022-09-14T05:51:34.842Z,979.66
2022-09-14T05:52:34.761Z,979.63
2022-09-14T05:53:34.909Z,979.58
2022-09-14T05:54:34.776Z,979.63
2022-09-14T05:55:34.723Z,979.65
2022-09-14T05:56:34.707Z,979.64
2022-09-14T05:57:34.755Z,979.58
2022-09-14T05:58:34.717Z,979.64
2022-09-14T05:59:34.731Z,979.57
2022-09-14T06:00:34.782Z,979.55
2022-09-14T06:01:34.737Z,979.57
2022-09-14T06:02:35.162Z,979.56
2022-09-14T06:03:34.652Z,979.51
2022-09-14T06:04:34.645Z,979.52
2022-09-14T06:05:34.684Z,979.53
2022-09-14T06:06:34.687Z,979.52
2022-09-14T06:07:34.597Z,979.50
2022-09-14T06:08:34.607Z,979.48
2022-09-14T06:09:34.743Z,979.50
2022-09-14T06:10:34.563Z,979.53
2022-09-14T06:11:34.727Z,979.54
2022-09-14T06:12:34.715Z,979.48
2022-09-14T06:13:34.523Z,979.48
2022-09-14T06:14:34.560Z,979.47
2022-09-14T06:15:34.508Z,979.50
2022-09-14T06:16:34.569Z,979.49
2022-09-14T06:17:34.482Z,979.48
2022-09-14T06:18:34.502Z,979.42
2022-09-14T06:19:34.463Z,979.44
2022-09-14T06:20:34.571Z,979.43
2022-09-14T06:21:34.463Z,979.43
2022-09-14T06:22:34.451Z,979.50
2022-09-14T06:23:34.415Z,979.45
2022-09-14T06:24:34.450Z,979.40
2022-09-14T06:25:34.412Z,979.41
2022-09-14T06:26:34.500Z,979.44
2022-09-14T06:27:34.380Z,979.46
2022-09-14T06:28:34.413Z,979.39
2022-09-14T06:29:34.624Z,979.39
2022-09-14T06:30:34.407Z,979.38
2022-09-14T06:31:34.356Z,979.37
2022-09-14T06:32:34.335Z,979.39
2022-09-14T06:33:34.389Z,979.36
2022-09-14T06:34:34.328Z,979.40
2022-09-14T06:35:34.292Z,979.34
2022-09-14T06:36:34.417Z,979.36
2022-09-14T06:37:34.296Z,979.42
2022-09-14T06:38:34.413Z,979.37
2022-09-14T06:39:34.267Z,979.41
2022-09-14T06:40:34.288Z,979.47
2022-09-14T06:41:34.299Z,979.44
2022-09-14T06:42:34.214Z,979.48
2022-09-14T06:43:34.209Z,979.51
2022-09-14T06:44:34.338Z,979.52
2022-09-14T06:45:34.209Z,979.47
2022-09-14T06:46:34.264Z,979.49
2022-09-14T06:47:34.234Z,979.54
2022-09-14T06:48:34.156Z,979.66
2022-09-14T06:49:34.167Z,979.61
2022-09-14T06:50:34.133Z,979.63
2022-09-14T06:51:34.319Z,979.59
2022-09-14T06:52:34.124Z,979.60
2022-09-14T06:53:34.118Z,979.56
2022-09-14T06:54:34.093Z,979.61
2022-09-14T06:55:34.194Z,979.65
2022-09-14T06:56:34.328Z,979.64
2022-09-14T06:57:34.090Z,979.63
2022-09-14T06:58:34.088Z,979.71
2022-09-14T06:59:34.067Z,979.78
2022-09-14T07:00:34.083Z,979.77
2022-09-14T07:01:34.010Z,979.78
2022-09-14T07:02:34.102Z,979.76
2022-09-14T07:03:34.053Z,979.77
2022-09-14T07:04:34.087Z,979.71
2022-09-14T07:05:33.986Z,979.71
2022-09-14T07:06:33.952Z,979.77
2022-09-14T07:07:33.970Z,979.82
2022-09-14T07:08:34.002Z,979.77
2022-09-14T07:09:33.981Z,979.73
2022-09-14T07:10:33.914Z,979.82
2022-09-14T07:11:33.904Z,979.85
2022-09-14T07:12:33.977Z,979.86
2022-09-14T07:13:34.091Z,979.82
2022-09-14T07:14:33.947Z,979.86
2022-09-14T07:15:33.858Z,979.83
2022-09-14T07:16:34.014Z,979.77
2022-09-14T07:17:33.848Z,979.80
2022-09-14T07:18:33.866Z,979.73
2022-09-14T07:19:34.103Z,979.77
2022-09-14T07:20:33.857Z,979.81
2022-09-14T07:21:33.814Z,979.79
2022-09-14T07:22:33.888Z,979.79
2022-09-14T07:23:33.811Z,979.82
2022-09-14T07:24:33.768Z,979.80
2022-09-14T07:25:33.750Z,979.75
2022-09-14T07:26:33.840Z,979.81
2022-09-14T07:27:33.784Z,979.76
2022-09-14T07:28:33.745Z,979.77
2022-09-14T07:29:33.767Z,979.71
2022-09-14T07:30:33.778Z,979.77
2022-09-14T07:31:33.779Z,979.80
2022-09-14T07:32:33.696Z,979.83
2022-09-14T07:33:33.692Z,979.84
2022-09-14T07:34:33.682Z,979.84
2022-09-14T07:35:33.677Z,979.85
2022-09-14T07:36:35.126Z,979.88
2022-09-14T07:37:33.789Z,979.89
2022-09-14T07:38:57.748Z,979.88
2022-09-14T07:39:34.789Z,979.90
2022-09-14T07:40:33.809Z,979.84
2022-09-14T07:41:33.642Z,979.90
2022-09-14T07:42:33.598Z,979.92
2022-09-14T07:43:33.575Z,979.94
2022-09-14T07:44:33.588Z,980.01
2022-09-14T07:45:33.706Z,979.97
2022-09-14T07:46:33.552Z,980.06
2022-09-14T07:47:33.556Z,980.12
2022-09-14T07:48:33.571Z,980.12
2022-09-14T07:49:33.564Z,980.11
2022-09-14T07:50:33.517Z,980.13
2022-09-14T07:51:33.491Z,980.16
2022-09-14T07:52:37.975Z,980.22
2022-09-14T07:53:34.464Z,980.29
2022-09-14T07:54:33.512Z,980.26
2022-09-14T07:55:33.491Z,980.27
2022-09-14T07:56:33.417Z,980.26
2022-09-14T07:57:54.560Z,980.29
2022-09-14T07:58:34.469Z,980.28
2022-09-14T07:59:36.458Z,980.30
2022-09-14T08:00:33.507Z,980.27
2022-09-14T08:01:33.623Z,980.24
2022-09-14T08:02:33.430Z,980.21
2022-09-14T08:03:33.351Z,980.18
2022-09-14T08:04:33.386Z,980.08
2022-09-14T08:05:33.376Z,980.13
2022-09-14T08:06:33.360Z,980.10
2022-09-14T08:07:33.329Z,980.09
2022-09-14T08:08:33.300Z,980.16
2022-09-14T08:09:33.366Z,980.18
2022-09-14T08:10:33.267Z,980.24
2022-09-14T08:11:33.259Z,980.31
2022-09-14T08:12:33.365Z,980.40
2022-09-14T08:13:33.280Z,980.36
2022-09-14T08:14:33.248Z,980.39
2022-09-14T08:15:33.265Z,980.43
2022-09-14T08:16:33.321Z,980.41
2022-09-14T08:17:33.325Z,980.46
2022-09-14T08:18:33.182Z,980.48
2022-09-14T08:19:33.235Z,980.47
2022-09-14T08:20:33.172Z,980.47
2022-09-14T08:21:33.179Z,980.55
2022-09-14T08:22:33.177Z,980.51
2022-09-14T08:23:33.136Z,980.54
2022-09-14T08:24:33.182Z,980.48
2022-09-14T08:25:33.115Z,980.47
2022-09-14T08:26:33.116Z,980.37
2022-09-14T08:27:33.093Z,980.38
2022-09-14T08:28:33.074Z,980.44
2022-09-14T08:29:33.117Z,980.43
2022-09-14T08:30:33.055Z,980.31
2022-09-14T08:31:33.122Z,980.35
2022-09-14T08:32:33.038Z,980.31
2022-09-14T08:33:33.192Z,980.29
2022-09-14T08:34:33.114Z,980.22
2022-09-14T08:35:56.461Z,980.21
2022-09-14T08:36:34.032Z,980.22
2022-09-14T08:37:33.016Z,980.23
2022-09-14T08:38:33.031Z,980.23
2022-09-14T08:39:32.981Z,980.24
2022-09-14T08:40:33.038Z,980.33
2022-09-14T08:41:32.949Z,980.33
2022-09-14T08:42:33.115Z,980.31
2022-09-14T08:43:33.002Z,980.34
2022-09-14T08:44:32.944Z,980.39
2022-09-14T08:45:33.031Z,980.31
2022-09-14T08:46:32.901Z,980.38
2022-09-14T08:47:32.925Z,980.38
2022-09-14T08:48:32.870Z,980.41
2022-09-14T08:49:32.893Z,980.32
2022-09-14T08:50:36.925Z,980.34
2022-09-14T08:51:34.379Z,980.27
2022-09-14T08:52:32.913Z,980.31
2022-09-14T08:53:32.830Z,980.32
2022-09-14T08:54:32.856Z,980.35
2022-09-14T08:55:32.833Z,980.30
2022-09-14T08:56:32.831Z,980.17
2022-09-14T08:57:32.821Z,980.15
2022-09-14T08:58:32.756Z,980.12
2022-09-14T08:59:32.836Z,980.09
2022-09-14T09:00:32.836Z,980.11
2022-09-14T09:01:32.752Z,980.11
2022-09-14T09:02:32.713Z,980.07
2022-09-14T09:03:32.811Z,980.10
2022-09-14T09:04:32.781Z,980.03
2022-09-14T09:05:32.772Z,980.02
2022-09-14T09:06:32.675Z,980.02
2022-09-14T09:07:32.790Z,980.06
2022-09-14T09:08:32.665Z,980.18
2022-09-14T09:09:32.659Z,980.20
2022-09-14T09:10:32.676Z,980.23
2022-09-14T09:11:32.614Z,980.20
2022-09-14T09:12:32.604Z,980.22
2022-09-14T09:13:32.633Z,980.15
2022-09-14T09:14:32.676Z,980.11
2022-09-14T09:15:32.598Z,980.08
2022-09-14T09:16:32.665Z,980.08
2022-09-14T09:17:32.558Z,980.02
2022-09-14T09:18:32.599Z,979.94
2022-09-14T09:19:32.628Z,979.97
2022-09-14T09:20:32.586Z,979.89
2022-09-14T09:21:32.558Z,979.88
2022-09-14T09:22:32.583Z,979.85
2022-09-14T09:23:32.492Z,979.90
2022-09-14T09:24:36.933Z,979.86
2022-09-14T09:25:32.473Z,979.84
2022-09-14T09:26:32.506Z,979.89
2022-09-14T09:27:32.621Z,979.90
2022-09-14T09:28:32.484Z,979.87
2022-09-14T09:29:32.513Z,979.85
2022-09-14T09:30:32.421Z,979.89
2022-09-14T09:31:32.494Z,979.81
2022-09-14T09:32:32.412Z,979.82
2022-09-14T09:33:32.436Z,979.84
2022-09-14T09:34:32.502Z,979.84
2022-09-14T09:35:32.713Z,979.89
2022-09-14T09:36:32.413Z,979.88
2022-09-14T09:37:32.393Z,979.79
2022-09-14T09:38:32.399Z,979.77
2022-09-14T09:39:32.344Z,979.75
2022-09-14T09:40:32.445Z,979.76
2022-09-14T09:41:32.339Z,979.67
2022-09-14T09:42:32.414Z,979.70
2022-09-14T09:43:49.398Z,979.71
2022-09-14T09:44:33.330Z,979.72
2022-09-14T09:45:32.274Z,979.67
2022-09-14T09:46:32.319Z,979.68
2022-09-14T09:47:32.252Z,979.66
2022-09-14T09:48:32.410Z,979.72
2022-09-14T09:49:32.274Z,979.75
2022-09-14T09:50:32.305Z,979.70
2022-09-14T09:51:32.253Z,979.72
2022-09-14T09:52:33.124Z,979.64
2022-09-14T09:53:32.519Z,979.60
2022-09-14T09:54:32.264Z,979.60
2022-09-14T09:55:32.310Z,979.58
2022-09-14T09:56:32.145Z,979.63
2022-09-14T09:57:32.136Z,979.57
2022-09-14T09:58:32.135Z,979.57
2022-09-14T09:59:32.139Z,979.55
2022-09-14T10:00:32.245Z,979.57
2022-09-14T10:02:01.538Z,979.51
2022-09-14T10:03:01.510Z,979.55
2022-09-14T10:04:01.520Z,979.46
2022-09-14T10:05:01.544Z,979.48
2022-09-14T10:06:01.509Z,979.50
2022-09-14T10:07:01.499Z,979.60
2022-09-14T10:08:01.637Z,979.61
2022-09-14T10:09:01.564Z,979.55
2022-09-14T10:10:01.538Z,979.59
2022-09-14T10:11:01.425Z,979.50
2022-09-14T10:12:01.461Z,979.55
2022-09-14T10:13:01.407Z,979.51
2022-09-14T10:14:01.453Z,979.42
2022-09-14T10:15:01.412Z,979.50
2022-09-14T10:16:01.508Z,979.48
2022-09-14T10:17:01.562Z,979.45
2022-09-14T10:18:01.365Z,979.48
2022-09-14T10:19:01.383Z,979.46
2022-09-14T10:20:01.363Z,979.40
2022-09-14T10:21:01.371Z,979.50
2022-09-14T10:22:01.393Z,979.49
2022-09-14T10:23:01.367Z,979.54
2022-09-14T10:24:01.308Z,979.52
2022-09-14T10:25:01.977Z,979.62
2022-09-14T10:26:01.365Z,979.65
2022-09-14T10:27:01.266Z,979.50
2022-09-14T10:28:01.277Z,979.56
2022-09-14T10:29:01.259Z,979.60
2022-09-14T10:30:01.209Z,979.56
2022-09-14T10:31:01.307Z,979.69
2022-09-14T10:32:01.313Z,979.65
2022-09-14T10:33:01.191Z,979.81
2022-09-14T10:34:01.424Z,979.72
2022-09-14T10:35:01.182Z,979.72
2022-09-14T10:36:01.158Z,979.73
2022-09-14T10:37:01.228Z,979.96
2022-09-14T10:38:01.171Z,979.92
2022-09-14T10:39:01.135Z,980.01
2022-09-14T10:40:01.186Z,979.96
2022-09-14T10:41:01.186Z,979.89
2022-09-14T10:42:01.079Z,979.95
2022-09-14T10:43:01.089Z,980.01
2022-09-14T10:44:01.097Z,979.96
2022-09-14T10:45:01.058Z,979.96
2022-09-14T10:46:01.088Z,979.93
2022-09-14T10:47:04.503Z,979.98
2022-09-14T10:48:01.016Z,979.99
2022-09-14T10:49:01.042Z,980.00
2022-09-14T10:50:01.020Z,980.01
2022-09-14T10:51:01.110Z,980.02
2022-09-14T10:52:01.036Z,980.02
2022-09-14T10:53:00.964Z,980.05
2022-09-14T10:54:00.972Z,980.03
2022-09-14T10:55:00.943Z,980.04
2022-09-14T10:56:01.027Z,980.08
2022-09-14T10:57:00.959Z,980.10
2022-09-14T10:58:00.919Z,980.11
2022-09-14T10:59:01.044Z,980.07
2022-09-14T11:00:00.918Z,980.06
2022-09-14T11:01:00.910Z,980.10
2022-09-14T11:02:01.010Z,980.07
2022-09-14T11:03:00.935Z,980.03
2022-09-14T11:04:01.042Z,980.02
2022-09-14T11:05:00.831Z,980.04
2022-09-14T11:06:00.817Z,980.07
2022-09-14T11:07:00.974Z,980.10
2022-09-14T11:08:00.802Z,980.06
2022-09-14T11:09:00.894Z,980.18
2022-09-14T11:10:00.809Z,980.14
2022-09-14T11:11:00.766Z,980.19
2022-09-14T11:12:00.808Z,980.13
2022-09-14T11:13:00.889Z,980.20
2022-09-14T11:14:00.734Z,980.21
2022-09-14T11:15:00.725Z,980.21
2022-09-14T11:16:00.812Z,980.17
2022-09-14T11:17:00.730Z,980.32
2022-09-14T11:18:01.049Z,980.25
2022-09-14T11:19:00.899Z,980.26
2022-09-14T11:20:00.665Z,980.29
2022-09-14T11:21:00.654Z,980.25
2022-09-14T11:22:00.735Z,980.33
2022-09-14T11:23:00.683Z,980.33
2022-09-14T11:24:00.664Z,980.33
2022-09-14T11:25:00.681Z,980.37
2022-09-14T11:26:00.647Z,980.26
2022-09-14T11:27:00.628Z,980.27
2022-09-14T11:28:00.631Z,980.18
2022-09-14T11:29:00.593Z,980.20
2022-09-14T11:30:00.615Z,980.19
2022-09-14T11:31:00.683Z,980.16
2022-09-14T11:32:19.829Z,980.16
2022-09-14T11:33:01.524Z,980.17
2022-09-14T11:34:00.516Z,980.20
2022-09-14T11:35:00.574Z,980.27
2022-09-14T11:36:00.558Z,980.28
2022-09-14T11:37:00.561Z,980.35
2022-09-14T11:38:00.489Z,980.35
2022-09-14T11:39:04.659Z,980.36
2022-09-14T11:40:01.528Z,980.31
2022-09-14T11:41:00.478Z,980.32
2022-09-14T11:42:00.428Z,980.32
2022-09-14T11:43:00.757Z,980.39
2022-09-14T11:44:00.409Z,980.40
2022-09-14T11:45:00.490Z,980.44
2022-09-14T11:46:00.528Z,980.52
2022-09-14T11:47:01.060Z,980.52
2022-09-14T11:48:00.426Z,980.51
2022-09-14T11:49:00.362Z,980.40
2022-09-14T11:50:00.347Z,980.40
2022-09-14T11:51:00.442Z,980.40
2022-09-14T11:52:00.375Z,980.42
2022-09-14T11:53:00.328Z,980.49
2022-09-14T11:54:00.355Z,980.59
2022-09-14T11:55:00.344Z,980.69
2022-09-14T11:56:00.269Z,980.66
2022-09-14T11:57:00.261Z,980.64
2022-09-14T11:58:00.371Z,980.64
2022-09-14T11:59:00.289Z,980.61
2022-09-14T12:00:00.246Z,980.58
2022-09-14T12:01:00.278Z,980.55
2022-09-14T12:02:00.225Z,980.62
2022-09-14T12:03:00.389Z,980.66
2022-09-14T12:04:00.414Z,980.63
2022-09-14T12:05:00.214Z,980.64
2022-09-14T12:06:00.188Z,980.69
2022-09-14T12:07:00.227Z,980.74
2022-09-14T12:08:00.159Z,980.74
2022-09-14T12:09:00.158Z,980.80
2022-09-14T12:10:00.299Z,980.74
2022-09-14T12:11:00.104Z,980.81
2022-09-14T12:12:00.274Z,980.79
2022-09-14T12:13:00.085Z,980.80
2022-09-14T12:14:00.111Z,980.79
2022-09-14T12:15:00.334Z,980.89
2022-09-14T12:16:00.211Z,980.82
2022-09-14T12:17:00.051Z,980.83
2022-09-14T12:18:00.035Z,980.89
2022-09-14T12:19:00.323Z,980.78
2022-09-14T12:20:00.185Z,980.83
2022-09-14T12:21:00.035Z,980.86
2022-09-14T12:21:59.985Z,980.87
2022-09-14T12:22:59.975Z,980.86
2022-09-14T12:24:00.036Z,980.85
2022-09-14T12:25:00.118Z,980.92
2022-09-14T12:25:59.939Z,980.92
2022-09-14T12:26:59.941Z,980.95
2022-09-14T12:28:00.042Z,980.93
2022-09-14T12:29:00.146Z,980.92